sensor_id;sensor_type;location;lat;lon;timestamp;P1;durP1;ratioP1;P2;durP2;ratioP2
74196;SDS011;62555;52.678;4.900;2022-12-18T00:02:02;1622.32;;;999.90;;
74196;SDS011;62555;52.678;4.900;2022-12-18T00:04:28;1625.00;;;999.90;;
74196;SDS011;62555;52.678;4.900;2022-12-18T00:06:54;1627.60;;;999.90;;
74196;SDS011;62555;52.678;4.900;2022-12-18T00:09:19;1623.50;;;999.90;;
74196;SDS011;62555;52.678;4.900;2022-12-18T00:11:45;1610.90;;;999.90;;
74196;SDS011;62555;52.678;4.900;2022-12-18T00:14:11;1618.38;;;974.53;;
74196;SDS011;62555;52.678;4.900;2022-12-18T00:16:37;1617.57;;;972.47;;
74196;SDS011;62555;52.678;4.900;2022-12-18T00:19:02;1608.28;;;926.50;;
74196;SDS011;62555;52.678;4.900;2022-12-18T00:21:29;1603.00;;;875.40;;
74196;SDS011;62555;52.678;4.900;2022-12-18T00:23:55;1596.95;;;817.10;;
74196;SDS011;62555;52.678;4.900;2022-12-18T00:26:22;1422.72;;;739.22;;
74196;SDS011;62555;52.678;4.900;2022-12-18T00:28:49;1208.72;;;668.15;;
74196;SDS011;62555;52.678;4.900;2022-12-18T00:31:15;1087.88;;;616.30;;
74196;SDS011;62555;52.678;4.900;2022-12-18T00:33:43;864.63;;;505.75;;
74196;SDS011;62555;52.678;4.900;2022-12-18T00:36:12;702.08;;;389.83;;
74196;SDS011;62555;52.678;4.900;2022-12-18T00:38:40;513.08;;;268.67;;
74196;SDS011;62555;52.678;4.900;2022-12-18T00:41:06;503.13;;;245.70;;
74196;SDS011;62555;52.678;4.900;2022-12-18T00:43:32;353.60;;;154.27;;
74196;SDS011;62555;52.678;4.900;2022-12-18T00:46:00;227.05;;;95.03;;
74196;SDS011;62555;52.678;4.900;2022-12-18T00:48:25;133.75;;;51.58;;
74196;SDS011;62555;52.678;4.900;2022-12-18T00:50:51;89.00;;;35.63;;
74196;SDS011;62555;52.678;4.900;2022-12-18T00:53:16;59.70;;;26.80;;
74196;SDS011;62555;52.678;4.900;2022-12-18T00:55:42;45.88;;;23.33;;
74196;SDS011;62555;52.678;4.900;2022-12-18T00:58:08;44.63;;;23.40;;
74196;SDS011;62555;52.678;4.900;2022-12-18T01:00:34;43.38;;;22.35;;
74196;SDS011;62555;52.678;4.900;2022-12-18T01:03:00;36.30;;;19.13;;
74196;SDS011;62555;52.678;4.900;2022-12-18T01:05:25;33.95;;;20.63;;
74196;SDS011;62555;52.678;4.900;2022-12-18T01:07:50;34.35;;;17.75;;
74196;SDS011;62555;52.678;4.900;2022-12-18T01:10:16;31.20;;;18.00;;
74196;SDS011;62555;52.678;4.900;2022-12-18T01:12:41;30.15;;;17.70;;
74196;SDS011;62555;52.678;4.900;2022-12-18T01:15:07;30.23;;;18.02;;
74196;SDS011;62555;52.678;4.900;2022-12-18T01:17:34;34.25;;;17.90;;
74196;SDS011;62555;52.678;4.900;2022-12-18T01:19:59;36.47;;;20.45;;
74196;SDS011;62555;52.678;4.900;2022-12-18T01:22:24;35.10;;;20.80;;
74196;SDS011;62555;52.678;4.900;2022-12-18T01:24:50;34.15;;;18.02;;
74196;SDS011;62555;52.678;4.900;2022-12-18T01:27:15;33.00;;;18.70;;
74196;SDS011;62555;52.678;4.900;2022-12-18T01:29:40;32.00;;;18.50;;
74196;SDS011;62555;52.678;4.900;2022-12-18T01:32:05;35.50;;;17.77;;
74196;SDS011;62555;52.678;4.900;2022-12-18T01:34:31;31.63;;;18.73;;
74196;SDS011;62555;52.678;4.900;2022-12-18T01:36:56;33.08;;;19.23;;
74196;SDS011;62555;52.678;4.900;2022-12-18T01:39:21;37.70;;;19.02;;
74196;SDS011;62555;52.678;4.900;2022-12-18T01:41:47;32.63;;;18.38;;
74196;SDS011;62555;52.678;4.900;2022-12-18T01:50:00;31.33;;;17.33;;
74196;SDS011;62555;52.678;4.900;2022-12-18T01:52:29;29.85;;;16.92;;
74196;SDS011;62555;52.678;4.900;2022-12-18T01:54:56;26.65;;;15.75;;
74196;SDS011;62555;52.678;4.900;2022-12-18T01:57:22;30.40;;;16.25;;
74196;SDS011;62555;52.678;4.900;2022-12-18T01:59:49;25.85;;;15.57;;
74196;SDS011;62555;52.678;4.900;2022-12-18T02:02:16;29.45;;;15.50;;
74196;SDS011;62555;52.678;4.900;2022-12-18T02:04:41;27.85;;;16.33;;
74196;SDS011;62555;52.678;4.900;2022-12-18T02:07:10;29.20;;;15.63;;
74196;SDS011;62555;52.678;4.900;2022-12-18T02:12:36;31.23;;;16.63;;
74196;SDS011;62555;52.678;4.900;2022-12-18T02:17:52;29.80;;;15.73;;
74196;SDS011;62555;52.678;4.900;2022-12-18T02:20:31;24.40;;;13.70;;
74196;SDS011;62555;52.678;4.900;2022-12-18T02:25:53;24.88;;;16.02;;
74196;SDS011;62555;52.678;4.900;2022-12-18T02:28:31;25.92;;;15.27;;
74196;SDS011;62555;52.678;4.900;2022-12-18T02:31:01;25.58;;;15.73;;
74196;SDS011;62555;52.678;4.900;2022-12-18T02:33:28;26.95;;;15.63;;
74196;SDS011;62555;52.678;4.900;2022-12-18T02:35:54;26.15;;;15.18;;
74196;SDS011;62555;52.678;4.900;2022-12-18T02:38:21;25.13;;;13.23;;
74196;SDS011;62555;52.678;4.900;2022-12-18T02:40:48;24.48;;;14.57;;
74196;SDS011;62555;52.678;4.900;2022-12-18T02:43:14;23.50;;;13.40;;
74196;SDS011;62555;52.678;4.900;2022-12-18T02:45:50;29.23;;;15.07;;
74196;SDS011;62555;52.678;4.900;2022-12-18T02:48:21;27.80;;;14.57;;
74196;SDS011;62555;52.678;4.900;2022-12-18T02:54:30;25.48;;;14.25;;
74196;SDS011;62555;52.678;4.900;2022-12-18T02:56:47;23.38;;;13.88;;
74196;SDS011;62555;52.678;4.900;2022-12-18T02:59:17;24.25;;;13.75;;
74196;SDS011;62555;52.678;4.900;2022-12-18T03:01:58;22.13;;;13.27;;
74196;SDS011;62555;52.678;4.900;2022-12-18T03:04:27;25.10;;;14.38;;
74196;SDS011;62555;52.678;4.900;2022-12-18T03:06:57;27.30;;;13.40;;
74196;SDS011;62555;52.678;4.900;2022-12-18T03:09:34;25.30;;;14.30;;
74196;SDS011;62555;52.678;4.900;2022-12-18T03:12:04;25.60;;;13.55;;
74196;SDS011;62555;52.678;4.900;2022-12-18T03:14:49;26.58;;;14.00;;
74196;SDS011;62555;52.678;4.900;2022-12-18T03:17:17;26.73;;;14.55;;
74196;SDS011;62555;52.678;4.900;2022-12-18T03:19:44;23.15;;;13.38;;
74196;SDS011;62555;52.678;4.900;2022-12-18T03:22:11;25.73;;;13.75;;
74196;SDS011;62555;52.678;4.900;2022-12-18T03:24:36;23.75;;;13.90;;
74196;SDS011;62555;52.678;4.900;2022-12-18T03:27:05;26.52;;;14.48;;
74196;SDS011;62555;52.678;4.900;2022-12-18T03:29:34;26.50;;;15.60;;
74196;SDS011;62555;52.678;4.900;2022-12-18T03:32:04;25.80;;;13.45;;
74196;SDS011;62555;52.678;4.900;2022-12-18T03:34:32;20.90;;;12.52;;
74196;SDS011;62555;52.678;4.900;2022-12-18T03:36:59;26.90;;;14.70;;
74196;SDS011;62555;52.678;4.900;2022-12-18T03:39:28;23.10;;;12.98;;
74196;SDS011;62555;52.678;4.900;2022-12-18T03:41:55;22.88;;;13.70;;
74196;SDS011;62555;52.678;4.900;2022-12-18T03:44:28;21.45;;;12.25;;
74196;SDS011;62555;52.678;4.900;2022-12-18T03:52:15;23.42;;;12.05;;
74196;SDS011;62555;52.678;4.900;2022-12-18T03:54:52;21.33;;;12.60;;
74196;SDS011;62555;52.678;4.900;2022-12-18T03:57:22;23.30;;;13.13;;
74196;SDS011;62555;52.678;4.900;2022-12-18T03:59:52;21.02;;;12.75;;
74196;SDS011;62555;52.678;4.900;2022-12-18T04:02:20;21.42;;;12.57;;
74196;SDS011;62555;52.678;4.900;2022-12-18T04:04:46;23.23;;;12.20;;
74196;SDS011;62555;52.678;4.900;2022-12-18T04:07:12;24.15;;;12.70;;
74196;SDS011;62555;52.678;4.900;2022-12-18T04:09:38;18.92;;;12.90;;
74196;SDS011;62555;52.678;4.900;2022-12-18T04:12:05;23.70;;;12.73;;
74196;SDS011;62555;52.678;4.900;2022-12-18T04:14:30;21.30;;;11.93;;
74196;SDS011;62555;52.678;4.900;2022-12-18T04:17:00;19.83;;;12.30;;
74196;SDS011;62555;52.678;4.900;2022-12-18T04:19:26;20.05;;;12.23;;
74196;SDS011;62555;52.678;4.900;2022-12-18T04:21:51;19.23;;;11.60;;
74196;SDS011;62555;52.678;4.900;2022-12-18T04:24:16;18.60;;;11.65;;
74196;SDS011;62555;52.678;4.900;2022-12-18T04:26:42;19.05;;;12.00;;
74196;SDS011;62555;52.678;4.900;2022-12-18T04:29:07;21.90;;;12.30;;
74196;SDS011;62555;52.678;4.900;2022-12-18T04:31:32;20.27;;;11.85;;
74196;SDS011;62555;52.678;4.900;2022-12-18T04:33:57;19.52;;;11.35;;
74196;SDS011;62555;52.678;4.900;2022-12-18T04:36:23;19.27;;;11.68;;
74196;SDS011;62555;52.678;4.900;2022-12-18T04:38:51;18.05;;;11.38;;
74196;SDS011;62555;52.678;4.900;2022-12-18T04:41:16;18.20;;;11.25;;
74196;SDS011;62555;52.678;4.900;2022-12-18T04:43:42;20.52;;;12.07;;
74196;SDS011;62555;52.678;4.900;2022-12-18T04:46:07;18.00;;;10.65;;
74196;SDS011;62555;52.678;4.900;2022-12-18T04:48:33;16.42;;;10.70;;
74196;SDS011;62555;52.678;4.900;2022-12-18T04:50:59;16.10;;;10.35;;
74196;SDS011;62555;52.678;4.900;2022-12-18T04:53:24;17.42;;;11.15;;
74196;SDS011;62555;52.678;4.900;2022-12-18T04:55:49;16.10;;;10.40;;
74196;SDS011;62555;52.678;4.900;2022-12-18T04:58:15;18.63;;;10.38;;
74196;SDS011;62555;52.678;4.900;2022-12-18T05:00:40;18.42;;;11.30;;
74196;SDS011;62555;52.678;4.900;2022-12-18T05:03:06;16.65;;;11.00;;
74196;SDS011;62555;52.678;4.900;2022-12-18T05:05:31;16.02;;;10.40;;
74196;SDS011;62555;52.678;4.900;2022-12-18T05:07:56;15.25;;;10.15;;
74196;SDS011;62555;52.678;4.900;2022-12-18T05:10:22;17.98;;;10.68;;
74196;SDS011;62555;52.678;4.900;2022-12-18T05:12:47;17.63;;;10.70;;
74196;SDS011;62555;52.678;4.900;2022-12-18T05:15:28;13.48;;;9.02;;
74196;SDS011;62555;52.678;4.900;2022-12-18T05:17:54;14.70;;;9.35;;
74196;SDS011;62555;52.678;4.900;2022-12-18T05:20:20;16.67;;;9.93;;
74196;SDS011;62555;52.678;4.900;2022-12-18T05:22:45;14.20;;;9.52;;
74196;SDS011;62555;52.678;4.900;2022-12-18T05:25:11;17.20;;;10.10;;
74196;SDS011;62555;52.678;4.900;2022-12-18T05:27:36;16.83;;;10.18;;
74196;SDS011;62555;52.678;4.900;2022-12-18T05:30:02;16.05;;;9.80;;
74196;SDS011;62555;52.678;4.900;2022-12-18T05:32:27;14.25;;;9.55;;
74196;SDS011;62555;52.678;4.900;2022-12-18T05:34:53;13.95;;;9.02;;
74196;SDS011;62555;52.678;4.900;2022-12-18T05:37:18;17.35;;;10.07;;
74196;SDS011;62555;52.678;4.900;2022-12-18T05:39:43;13.73;;;9.32;;
74196;SDS011;62555;52.678;4.900;2022-12-18T05:42:09;14.52;;;9.52;;
74196;SDS011;62555;52.678;4.900;2022-12-18T05:44:34;16.08;;;10.10;;
74196;SDS011;62555;52.678;4.900;2022-12-18T05:47:00;15.57;;;9.57;;
74196;SDS011;62555;52.678;4.900;2022-12-18T05:49:25;14.77;;;10.23;;
74196;SDS011;62555;52.678;4.900;2022-12-18T05:51:50;16.17;;;10.05;;
74196;SDS011;62555;52.678;4.900;2022-12-18T05:54:16;12.52;;;8.25;;
74196;SDS011;62555;52.678;4.900;2022-12-18T05:56:41;13.57;;;9.35;;
74196;SDS011;62555;52.678;4.900;2022-12-18T05:59:06;15.55;;;9.82;;
74196;SDS011;62555;52.678;4.900;2022-12-18T06:01:32;15.05;;;9.20;;
74196;SDS011;62555;52.678;4.900;2022-12-18T06:03:57;15.93;;;9.13;;
74196;SDS011;62555;52.678;4.900;2022-12-18T06:06:23;16.48;;;9.18;;
74196;SDS011;62555;52.678;4.900;2022-12-18T06:11:16;16.40;;;9.85;;
74196;SDS011;62555;52.678;4.900;2022-12-18T06:13:43;16.20;;;11.02;;
74196;SDS011;62555;52.678;4.900;2022-12-18T06:16:09;17.70;;;9.70;;
74196;SDS011;62555;52.678;4.900;2022-12-18T06:18:34;15.05;;;9.65;;
74196;SDS011;62555;52.678;4.900;2022-12-18T06:21:02;13.85;;;9.65;;
74196;SDS011;62555;52.678;4.900;2022-12-18T06:23:28;15.25;;;9.40;;
74196;SDS011;62555;52.678;4.900;2022-12-18T06:25:53;16.75;;;10.13;;
74196;SDS011;62555;52.678;4.900;2022-12-18T06:28:18;18.98;;;10.75;;
74196;SDS011;62555;52.678;4.900;2022-12-18T06:30:44;14.63;;;9.55;;
74196;SDS011;62555;52.678;4.900;2022-12-18T06:33:10;16.50;;;9.95;;
74196;SDS011;62555;52.678;4.900;2022-12-18T06:35:35;14.32;;;9.25;;
74196;SDS011;62555;52.678;4.900;2022-12-18T06:38:01;13.77;;;9.43;;
74196;SDS011;62555;52.678;4.900;2022-12-18T06:40:27;17.13;;;10.88;;
74196;SDS011;62555;52.678;4.900;2022-12-18T06:42:52;16.38;;;9.63;;
74196;SDS011;62555;52.678;4.900;2022-12-18T06:45:17;14.13;;;8.88;;
74196;SDS011;62555;52.678;4.900;2022-12-18T06:47:43;13.70;;;9.65;;
74196;SDS011;62555;52.678;4.900;2022-12-18T06:50:08;16.40;;;10.10;;
74196;SDS011;62555;52.678;4.900;2022-12-18T06:52:34;15.68;;;10.30;;
74196;SDS011;62555;52.678;4.900;2022-12-18T06:54:59;16.58;;;11.52;;
74196;SDS011;62555;52.678;4.900;2022-12-18T06:57:25;16.88;;;10.77;;
74196;SDS011;62555;52.678;4.900;2022-12-18T06:59:50;18.27;;;12.60;;
74196;SDS011;62555;52.678;4.900;2022-12-18T07:02:16;17.00;;;10.65;;
74196;SDS011;62555;52.678;4.900;2022-12-18T07:04:41;17.10;;;10.65;;
74196;SDS011;62555;52.678;4.900;2022-12-18T07:07:06;15.90;;;10.38;;
74196;SDS011;62555;52.678;4.900;2022-12-18T07:09:32;16.33;;;10.43;;
74196;SDS011;62555;52.678;4.900;2022-12-18T07:11:57;16.10;;;10.13;;
74196;SDS011;62555;52.678;4.900;2022-12-18T07:14:22;16.80;;;9.80;;
74196;SDS011;62555;52.678;4.900;2022-12-18T07:16:47;18.98;;;12.25;;
74196;SDS011;62555;52.678;4.900;2022-12-18T07:19:13;15.50;;;10.68;;
74196;SDS011;62555;52.678;4.900;2022-12-18T07:21:38;16.30;;;10.85;;
74196;SDS011;62555;52.678;4.900;2022-12-18T07:24:04;17.13;;;10.32;;
74196;SDS011;62555;52.678;4.900;2022-12-18T07:26:29;17.45;;;12.00;;
74196;SDS011;62555;52.678;4.900;2022-12-18T07:28:55;15.88;;;10.75;;
74196;SDS011;62555;52.678;4.900;2022-12-18T07:31:22;14.50;;;10.73;;
74196;SDS011;62555;52.678;4.900;2022-12-18T07:33:49;14.68;;;10.02;;
74196;SDS011;62555;52.678;4.900;2022-12-18T07:36:15;17.35;;;10.65;;
74196;SDS011;62555;52.678;4.900;2022-12-18T07:38:40;14.50;;;10.10;;
74196;SDS011;62555;52.678;4.900;2022-12-18T07:41:07;14.82;;;10.43;;
74196;SDS011;62555;52.678;4.900;2022-12-18T07:43:34;14.23;;;9.60;;
74196;SDS011;62555;52.678;4.900;2022-12-18T07:45:59;14.50;;;9.30;;
74196;SDS011;62555;52.678;4.900;2022-12-18T07:48:25;14.30;;;10.20;;
74196;SDS011;62555;52.678;4.900;2022-12-18T07:50:50;14.55;;;9.98;;
74196;SDS011;62555;52.678;4.900;2022-12-18T07:53:16;14.55;;;9.88;;
74196;SDS011;62555;52.678;4.900;2022-12-18T07:55:41;15.63;;;9.48;;
74196;SDS011;62555;52.678;4.900;2022-12-18T07:58:07;12.27;;;9.07;;
74196;SDS011;62555;52.678;4.900;2022-12-18T08:00:32;12.00;;;8.60;;
74196;SDS011;62555;52.678;4.900;2022-12-18T08:02:58;13.40;;;8.82;;
74196;SDS011;62555;52.678;4.900;2022-12-18T08:05:23;13.63;;;8.80;;
74196;SDS011;62555;52.678;4.900;2022-12-18T08:07:49;13.93;;;9.60;;
74196;SDS011;62555;52.678;4.900;2022-12-18T08:10:14;12.50;;;8.90;;
74196;SDS011;62555;52.678;4.900;2022-12-18T08:12:39;11.52;;;8.02;;
74196;SDS011;62555;52.678;4.900;2022-12-18T08:15:05;11.20;;;8.45;;
74196;SDS011;62555;52.678;4.900;2022-12-18T08:17:31;12.77;;;9.02;;
74196;SDS011;62555;52.678;4.900;2022-12-18T08:19:56;14.90;;;9.32;;
74196;SDS011;62555;52.678;4.900;2022-12-18T08:22:21;11.95;;;7.93;;
74196;SDS011;62555;52.678;4.900;2022-12-18T08:24:47;15.38;;;9.10;;
74196;SDS011;62555;52.678;4.900;2022-12-18T08:27:12;13.18;;;8.50;;
74196;SDS011;62555;52.678;4.900;2022-12-18T08:29:37;11.48;;;7.80;;
74196;SDS011;62555;52.678;4.900;2022-12-18T08:32:03;11.63;;;8.15;;
74196;SDS011;62555;52.678;4.900;2022-12-18T08:34:28;12.73;;;8.07;;
74196;SDS011;62555;52.678;4.900;2022-12-18T08:36:54;11.05;;;8.38;;
74196;SDS011;62555;52.678;4.900;2022-12-18T08:39:19;11.35;;;7.70;;
74196;SDS011;62555;52.678;4.900;2022-12-18T08:41:44;10.77;;;7.70;;
74196;SDS011;62555;52.678;4.900;2022-12-18T08:44:30;10.35;;;7.80;;
74196;SDS011;62555;52.678;4.900;2022-12-18T08:47:05;10.98;;;7.35;;
74196;SDS011;62555;52.678;4.900;2022-12-18T08:49:30;11.68;;;6.93;;
74196;SDS011;62555;52.678;4.900;2022-12-18T08:51:56;12.15;;;7.43;;
74196;SDS011;62555;52.678;4.900;2022-12-18T08:54:24;9.27;;;7.07;;
74196;SDS011;62555;52.678;4.900;2022-12-18T08:56:50;10.30;;;7.65;;
74196;SDS011;62555;52.678;4.900;2022-12-18T08:59:18;8.95;;;7.80;;
74196;SDS011;62555;52.678;4.900;2022-12-18T09:01:44;10.68;;;7.22;;
74196;SDS011;62555;52.678;4.900;2022-12-18T09:04:10;9.77;;;7.10;;
74196;SDS011;62555;52.678;4.900;2022-12-18T09:06:36;8.35;;;7.30;;
74196;SDS011;62555;52.678;4.900;2022-12-18T09:09:02;10.88;;;7.15;;
74196;SDS011;62555;52.678;4.900;2022-12-18T09:11:28;10.07;;;7.40;;
74196;SDS011;62555;52.678;4.900;2022-12-18T09:13:54;8.93;;;6.97;;
74196;SDS011;62555;52.678;4.900;2022-12-18T09:16:21;10.85;;;6.57;;
74196;SDS011;62555;52.678;4.900;2022-12-18T09:18:47;8.52;;;7.30;;
74196;SDS011;62555;52.678;4.900;2022-12-18T09:21:14;7.93;;;6.55;;
74196;SDS011;62555;52.678;4.900;2022-12-18T09:23:41;9.30;;;7.50;;
74196;SDS011;62555;52.678;4.900;2022-12-18T09:26:06;7.57;;;6.13;;
74196;SDS011;62555;52.678;4.900;2022-12-18T09:28:31;9.18;;;6.03;;
74196;SDS011;62555;52.678;4.900;2022-12-18T09:30:57;7.65;;;6.35;;
74196;SDS011;62555;52.678;4.900;2022-12-18T09:33:22;6.70;;;5.85;;
74196;SDS011;62555;52.678;4.900;2022-12-18T09:35:47;8.13;;;6.00;;
74196;SDS011;62555;52.678;4.900;2022-12-18T09:38:14;7.93;;;6.15;;
74196;SDS011;62555;52.678;4.900;2022-12-18T09:40:48;9.25;;;6.10;;
74196;SDS011;62555;52.678;4.900;2022-12-18T09:43:19;7.78;;;6.07;;
74196;SDS011;62555;52.678;4.900;2022-12-18T09:45:46;7.28;;;6.30;;
74196;SDS011;62555;52.678;4.900;2022-12-18T09:48:19;8.23;;;5.90;;
74196;SDS011;62555;52.678;4.900;2022-12-18T09:50:47;8.30;;;6.25;;
74196;SDS011;62555;52.678;4.900;2022-12-18T09:53:15;8.00;;;5.55;;
74196;SDS011;62555;52.678;4.900;2022-12-18T09:55:45;7.75;;;5.57;;
74196;SDS011;62555;52.678;4.900;2022-12-18T09:58:47;9.65;;;5.97;;
74196;SDS011;62555;52.678;4.900;2022-12-18T10:01:14;6.22;;;5.30;;
74196;SDS011;62555;52.678;4.900;2022-12-18T10:03:43;6.35;;;5.15;;
74196;SDS011;62555;52.678;4.900;2022-12-18T10:06:11;8.95;;;6.18;;
74196;SDS011;62555;52.678;4.900;2022-12-18T10:17:05;7.05;;;5.63;;
74196;SDS011;62555;52.678;4.900;2022-12-18T10:27:47;8.15;;;5.85;;
74196;SDS011;62555;52.678;4.900;2022-12-18T10:30:13;6.72;;;4.90;;
74196;SDS011;62555;52.678;4.900;2022-12-18T10:35:07;5.82;;;4.97;;
74196;SDS011;62555;52.678;4.900;2022-12-18T10:37:42;6.22;;;4.60;;
74196;SDS011;62555;52.678;4.900;2022-12-18T10:43:03;7.88;;;5.57;;
74196;SDS011;62555;52.678;4.900;2022-12-18T10:45:29;7.65;;;5.35;;
74196;SDS011;62555;52.678;4.900;2022-12-18T10:47:54;7.45;;;4.68;;
74196;SDS011;62555;52.678;4.900;2022-12-18T10:50:24;5.15;;;4.63;;
74196;SDS011;62555;52.678;4.900;2022-12-18T10:52:54;5.35;;;4.32;;
74196;SDS011;62555;52.678;4.900;2022-12-18T10:55:24;5.72;;;5.18;;
74196;SDS011;62555;52.678;4.900;2022-12-18T10:57:52;8.18;;;5.28;;
74196;SDS011;62555;52.678;4.900;2022-12-18T11:00:20;6.57;;;4.72;;
74196;SDS011;62555;52.678;4.900;2022-12-18T11:02:48;6.25;;;4.95;;
74196;SDS011;62555;52.678;4.900;2022-12-18T11:05:22;6.28;;;5.22;;
74196;SDS011;62555;52.678;4.900;2022-12-18T11:07:51;5.45;;;4.45;;
74196;SDS011;62555;52.678;4.900;2022-12-18T11:12:44;6.97;;;4.78;;
74196;SDS011;62555;52.678;4.900;2022-12-18T11:15:19;5.43;;;4.70;;
74196;SDS011;62555;52.678;4.900;2022-12-18T11:17:47;5.65;;;4.53;;
74196;SDS011;62555;52.678;4.900;2022-12-18T11:23:05;6.35;;;4.65;;
74196;SDS011;62555;52.678;4.900;2022-12-18T11:25:37;6.47;;;5.20;;
74196;SDS011;62555;52.678;4.900;2022-12-18T11:28:25;7.22;;;4.90;;
74196;SDS011;62555;52.678;4.900;2022-12-18T11:31:17;6.13;;;4.80;;
74196;SDS011;62555;52.678;4.900;2022-12-18T11:36:24;5.82;;;5.25;;
74196;SDS011;62555;52.678;4.900;2022-12-18T11:38:52;6.18;;;4.82;;
74196;SDS011;62555;52.678;4.900;2022-12-18T11:44:11;5.72;;;4.85;;
74196;SDS011;62555;52.678;4.900;2022-12-18T11:46:39;6.30;;;4.60;;
74196;SDS011;62555;52.678;4.900;2022-12-18T11:49:21;5.45;;;4.55;;
74196;SDS011;62555;52.678;4.900;2022-12-18T11:52:00;5.25;;;4.60;;
74196;SDS011;62555;52.678;4.900;2022-12-18T11:54:28;6.05;;;4.75;;
74196;SDS011;62555;52.678;4.900;2022-12-18T12:10:23;5.15;;;3.83;;
74196;SDS011;62555;52.678;4.900;2022-12-18T12:13:14;5.55;;;4.03;;
74196;SDS011;62555;52.678;4.900;2022-12-18T12:18:53;4.97;;;4.15;;
74196;SDS011;62555;52.678;4.900;2022-12-18T12:21:32;7.38;;;4.65;;
74196;SDS011;62555;52.678;4.900;2022-12-18T12:32:40;5.07;;;4.28;;
74196;SDS011;62555;52.678;4.900;2022-12-18T12:35:32;6.72;;;4.55;;
74196;SDS011;62555;52.678;4.900;2022-12-18T12:38:05;481.42;;;430.45;;
74196;SDS011;62555;52.678;4.900;2022-12-18T12:40:34;549.58;;;461.55;;
74196;SDS011;62555;52.678;4.900;2022-12-18T12:43:02;602.00;;;502.48;;
74196;SDS011;62555;52.678;4.900;2022-12-18T12:45:46;340.52;;;234.65;;
74196;SDS011;62555;52.678;4.900;2022-12-18T12:48:34;315.10;;;212.43;;
74196;SDS011;62555;52.678;4.900;2022-12-18T12:51:00;467.10;;;368.08;;
74196;SDS011;62555;52.678;4.900;2022-12-18T12:53:29;750.10;;;618.35;;
74196;SDS011;62555;52.678;4.900;2022-12-18T12:55:57;1032.30;;;754.75;;
74196;SDS011;62555;52.678;4.900;2022-12-18T13:04:21;980.97;;;654.55;;
74196;SDS011;62555;52.678;4.900;2022-12-18T13:07:00;971.25;;;667.90;;
74196;SDS011;62555;52.678;4.900;2022-12-18T13:09:32;778.17;;;568.67;;
74196;SDS011;62555;52.678;4.900;2022-12-18T13:12:04;492.42;;;312.10;;
74196;SDS011;62555;52.678;4.900;2022-12-18T13:14:52;138.07;;;62.70;;
74196;SDS011;62555;52.678;4.900;2022-12-18T13:19:49;18.08;;;11.05;;
74196;SDS011;62555;52.678;4.900;2022-12-18T13:22:20;9.75;;;6.78;;
74196;SDS011;62555;52.678;4.900;2022-12-18T13:24:47;10.32;;;6.72;;
74196;SDS011;62555;52.678;4.900;2022-12-18T13:35:51;1022.53;;;716.75;;
74196;SDS011;62555;52.678;4.900;2022-12-18T13:38:40;1569.38;;;896.88;;
74196;SDS011;62555;52.678;4.900;2022-12-18T13:46:18;1081.93;;;700.97;;
74196;SDS011;62555;52.678;4.900;2022-12-18T13:48:53;1521.15;;;854.00;;
74196;SDS011;62555;52.678;4.900;2022-12-18T13:51:21;1349.10;;;784.00;;
74196;SDS011;62555;52.678;4.900;2022-12-18T13:53:54;975.70;;;625.10;;
74196;SDS011;62555;52.678;4.900;2022-12-18T13:56:23;988.78;;;660.42;;
74196;SDS011;62555;52.678;4.900;2022-12-18T14:01:45;1007.63;;;639.40;;
74196;SDS011;62555;52.678;4.900;2022-12-18T14:04:18;992.95;;;643.75;;
74196;SDS011;62555;52.678;4.900;2022-12-18T14:06:46;711.35;;;451.52;;
74196;SDS011;62555;52.678;4.900;2022-12-18T14:09:15;807.13;;;550.55;;
74196;SDS011;62555;52.678;4.900;2022-12-18T14:11:49;766.20;;;526.72;;
74196;SDS011;62555;52.678;4.900;2022-12-18T14:14:16;565.78;;;374.10;;
74196;SDS011;62555;52.678;4.900;2022-12-18T14:16:42;704.15;;;493.80;;
74196;SDS011;62555;52.678;4.900;2022-12-18T14:19:08;659.83;;;465.45;;
74196;SDS011;62555;52.678;4.900;2022-12-18T14:21:38;711.53;;;508.20;;
74196;SDS011;62555;52.678;4.900;2022-12-18T14:24:04;661.13;;;457.10;;
74196;SDS011;62555;52.678;4.900;2022-12-18T14:26:36;592.60;;;408.70;;
74196;SDS011;62555;52.678;4.900;2022-12-18T14:29:18;278.85;;;151.57;;
74196;SDS011;62555;52.678;4.900;2022-12-18T14:31:45;73.20;;;36.40;;
74196;SDS011;62555;52.678;4.900;2022-12-18T14:34:16;23.90;;;14.18;;
74196;SDS011;62555;52.678;4.900;2022-12-18T14:36:51;54.80;;;37.05;;
74196;SDS011;62555;52.678;4.900;2022-12-18T14:39:17;895.30;;;695.95;;
74196;SDS011;62555;52.678;4.900;2022-12-18T14:41:43;766.05;;;595.08;;
74196;SDS011;62555;52.678;4.900;2022-12-18T14:44:10;516.90;;;372.88;;
74196;SDS011;62555;52.678;4.900;2022-12-18T14:46:38;401.52;;;255.27;;
74196;SDS011;62555;52.678;4.900;2022-12-18T14:51:53;28.80;;;15.73;;
74196;SDS011;62555;52.678;4.900;2022-12-18T14:54:20;10.20;;;7.50;;
74196;SDS011;62555;52.678;4.900;2022-12-18T14:56:47;9.18;;;6.25;;
74196;SDS011;62555;52.678;4.900;2022-12-18T14:59:15;6.40;;;5.10;;
74196;SDS011;62555;52.678;4.900;2022-12-18T15:04:34;7.88;;;5.40;;
74196;SDS011;62555;52.678;4.900;2022-12-18T15:09:36;6.30;;;4.75;;
74196;SDS011;62555;52.678;4.900;2022-12-18T15:12:02;7.35;;;4.80;;
74196;SDS011;62555;52.678;4.900;2022-12-18T15:17:03;4.93;;;3.88;;
74196;SDS011;62555;52.678;4.900;2022-12-18T15:19:33;5.32;;;4.00;;
74196;SDS011;62555;52.678;4.900;2022-12-18T15:22:01;5.93;;;3.88;;
74196;SDS011;62555;52.678;4.900;2022-12-18T15:24:27;5.68;;;4.45;;
74196;SDS011;62555;52.678;4.900;2022-12-18T15:26:55;1154.22;;;867.85;;
74196;SDS011;62555;52.678;4.900;2022-12-18T15:29:21;1603.88;;;999.90;;
74196;SDS011;62555;52.678;4.900;2022-12-18T15:32:03;1603.13;;;998.58;;
74196;SDS011;62555;52.678;4.900;2022-12-18T15:34:31;1350.35;;;856.50;;
74196;SDS011;62555;52.678;4.900;2022-12-18T15:36:59;1596.78;;;931.38;;
74196;SDS011;62555;52.678;4.900;2022-12-18T15:39:24;1614.68;;;999.90;;
74196;SDS011;62555;52.678;4.900;2022-12-18T15:41:50;1611.25;;;999.90;;
74196;SDS011;62555;52.678;4.900;2022-12-18T15:44:34;1621.22;;;999.90;;
74196;SDS011;62555;52.678;4.900;2022-12-18T15:46:59;1616.45;;;999.90;;
74196;SDS011;62555;52.678;4.900;2022-12-18T15:49:24;1616.65;;;999.90;;
74196;SDS011;62555;52.678;4.900;2022-12-18T15:51:57;1607.32;;;960.78;;
74196;SDS011;62555;52.678;4.900;2022-12-18T15:54:23;1605.25;;;961.60;;
74196;SDS011;62555;52.678;4.900;2022-12-18T15:57:08;1623.00;;;999.90;;
74196;SDS011;62555;52.678;4.900;2022-12-18T15:59:54;1624.70;;;999.90;;
74196;SDS011;62555;52.678;4.900;2022-12-18T16:02:22;1621.43;;;999.90;;
74196;SDS011;62555;52.678;4.900;2022-12-18T16:04:48;1634.22;;;999.90;;
74196;SDS011;62555;52.678;4.900;2022-12-18T16:07:15;1624.28;;;999.90;;
74196;SDS011;62555;52.678;4.900;2022-12-18T16:09:40;1612.65;;;997.80;;
74196;SDS011;62555;52.678;4.900;2022-12-18T16:12:06;1617.25;;;988.85;;
74196;SDS011;62555;52.678;4.900;2022-12-18T16:14:39;1601.47;;;927.95;;
74196;SDS011;62555;52.678;4.900;2022-12-18T16:17:05;1594.43;;;861.63;;
74196;SDS011;62555;52.678;4.900;2022-12-18T16:19:34;1579.25;;;867.08;;
74196;SDS011;62555;52.678;4.900;2022-12-18T16:21:59;1594.72;;;906.63;;
74196;SDS011;62555;52.678;4.900;2022-12-18T16:24:26;1606.18;;;993.60;;
74196;SDS011;62555;52.678;4.900;2022-12-18T16:26:53;1605.25;;;973.30;;